KRBD Airport Information

Runway Information
Runway 13 Length 6451 ft width 150 ft
Elevation 655 ft Threshold ft Heading 135
Runway 31 Length 6451 ft Width 150 ft
Elevation 646 ft Threshold ft Heading 315
Runway 17 Length 3800 ft width 150 ft
Elevation 651 ft Threshold ft Heading 180
Runway 35 Length 3800 ft Width 150 ft
Elevation 659 ft Threshold ft Heading 0
Airport Frequencies
Type A/D Name RGNL APP/D Frequency 125.2 MHZ
Type ATIS Name ATIS Frequency 126.35 MHZ
Type CLD Name CLNC DEL Frequency 118.625 MHZ
Type CTAF Name CTAF Frequency 120.3 MHZ
Type GND Name GND Frequency 121.7 MHZ
Type TWR Name EXECUTIVE Frequency 120.3 MHZ
Type UNIC Name UNICOM Frequency 122.95 MHZ
Airport Navaids
Airport Weather Information & NOTAM
ADDS - METARS form results

(2347 UTC 18 August 2022)
Data provider http://aviationweather.gov/metar/data/
 
METAR text: KRBD 182253Z 36007KT 10SM CLR 31/19 A2992 RMK AO2 SLP121 T03060194
Conditions at: KRBD (DALLAS/REDBIRD , TX, US) observed 2253 UTC 18 August 2022
Temperature: 30.6°C (87°F)
Dewpoint: 19.4°C (67°F) [RH = 51%]
Pressure (altimeter): 29.92 inches Hg (1013.3 mb)
[Sea-level pressure: 1012.1 mb]
Winds: from the N (360 degrees) at 8 MPH (7 knots; 3.6 m/s)
Visibility: 10 or more miles (16+ km)
Ceiling: at least 12,000 feet AGL
Clouds: sky clear below 12,000 feet AGL
Weather: no significant weather observed at this time